KLM979 EGLC-EHAM
Flight info
| Callsign | KLM979 |
|---|---|
| Flight time | 0h 38m |
| Altitude | 21000 |
| Route | ODUKU M84 CLN P44 RATLO M197 REDFA |
| Aircraft | E190/M-SDE3GILORVW/S |
Departure
| Time | 2026-05-04 17:26 |
|---|---|
| Airport | London City Airport (EGLC) |
Arrival
| Time | 2026-05-04 18:04 |
|---|---|
| Airport | Amsterdam Airport Schiphol (EHAM) |
| Time | Latitude | Longitude | Altitude | Speed | Heading |
|---|---|---|---|---|---|
| 2026-05-04 17:16 | 51.50441 | 0.04650 | 18 ft | 0 kts | 302° |
| 2026-05-04 17:23 | 51.50457 | 0.04612 | 18 ft | 5 kts | 303° |
| 2026-05-04 17:24 | 51.50485 | 0.04546 | 18 ft | 8 kts | 319° |
| 2026-05-04 17:24 | 51.50550 | 0.04575 | 18 ft | 0 kts | 89° |
| 2026-05-04 17:26 | 51.50550 | 0.04598 | 18 ft | 5 kts | 91° |
| 2026-05-04 17:26 | 51.50437 | 0.08014 | 643 ft | 153 kts | 85° |
| 2026-05-04 17:27 | 51.51643 | 0.10804 | 1986 ft | 177 kts | 43° |
| 2026-05-04 17:27 | 51.53649 | 0.13759 | 2879 ft | 209 kts | 41° |
| 2026-05-04 17:28 | 51.55672 | 0.17139 | 2973 ft | 212 kts | 61° |
| 2026-05-04 17:29 | 51.57626 | 0.23523 | 2976 ft | 211 kts | 63° |
| 2026-05-04 17:29 | 51.59573 | 0.29929 | 3173 ft | 229 kts | 63° |
| 2026-05-04 17:30 | 51.61847 | 0.37439 | 5334 ft | 270 kts | 63° |
| 2026-05-04 17:31 | 51.63510 | 0.42948 | 7268 ft | 279 kts | 63° |
| 2026-05-04 17:31 | 51.66077 | 0.51474 | 10142 ft | 293 kts | 63° |
| 2026-05-04 17:32 | 51.67878 | 0.57471 | 11771 ft | 313 kts | 63° |
| 2026-05-04 17:33 | 51.70831 | 0.67344 | 14385 ft | 337 kts | 64° |
| 2026-05-04 17:33 | 51.71834 | 0.70702 | 15391 ft | 340 kts | 64° |
| 2026-05-04 17:34 | 51.74936 | 0.81130 | 18144 ft | 352 kts | 65° |
| 2026-05-04 17:34 | 51.75995 | 0.84699 | 18957 ft | 358 kts | 65° |
| 2026-05-04 17:35 | 51.79279 | 0.95804 | 20946 ft | 374 kts | 65° |
| 2026-05-04 17:35 | 51.81595 | 1.03668 | 21011 ft | 405 kts | 65° |
| 2026-05-04 17:35 | 51.82829 | 1.07869 | 21022 ft | 429 kts | 65° |
| 2026-05-04 17:36 | 51.84132 | 1.12308 | 21012 ft | 441 kts | 65° |
| 2026-05-04 17:36 | 51.85408 | 1.16819 | 21005 ft | 442 kts | 67° |
| 2026-05-04 17:36 | 51.86632 | 1.21352 | 21009 ft | 441 kts | 66° |
| 2026-05-04 17:36 | 51.87853 | 1.25881 | 21001 ft | 440 kts | 66° |
| 2026-05-04 17:37 | 51.89069 | 1.30403 | 21000 ft | 440 kts | 66° |
| 2026-05-04 17:37 | 51.90281 | 1.34917 | 21005 ft | 440 kts | 66° |
| 2026-05-04 17:37 | 51.91500 | 1.39464 | 21004 ft | 440 kts | 66° |
| 2026-05-04 17:37 | 51.92722 | 1.44036 | 21008 ft | 440 kts | 66° |
| 2026-05-04 17:38 | 51.93921 | 1.48524 | 21010 ft | 440 kts | 66° |
| 2026-05-04 17:38 | 51.95135 | 1.53086 | 21009 ft | 441 kts | 66° |
| 2026-05-04 17:38 | 51.96352 | 1.57662 | 21011 ft | 442 kts | 66° |
| 2026-05-04 17:38 | 51.97554 | 1.62192 | 21006 ft | 441 kts | 66° |
| 2026-05-04 17:39 | 51.99664 | 1.71494 | 21014 ft | 442 kts | 76° |
| 2026-05-04 17:39 | 52.00407 | 1.76275 | 21014 ft | 442 kts | 76° |
| 2026-05-04 17:39 | 52.01166 | 1.81157 | 21009 ft | 442 kts | 76° |
| 2026-05-04 17:40 | 52.01911 | 1.85962 | 21011 ft | 442 kts | 76° |
| 2026-05-04 17:40 | 52.02655 | 1.90769 | 21009 ft | 442 kts | 76° |
| 2026-05-04 17:40 | 52.03397 | 1.95581 | 21010 ft | 442 kts | 76° |
| 2026-05-04 17:40 | 52.04142 | 2.00423 | 21012 ft | 442 kts | 76° |
| 2026-05-04 17:41 | 52.04878 | 2.05221 | 21009 ft | 441 kts | 76° |
| 2026-05-04 17:41 | 52.05616 | 2.10046 | 21009 ft | 440 kts | 76° |
| 2026-05-04 17:41 | 52.06348 | 2.14852 | 21007 ft | 441 kts | 76° |
| 2026-05-04 17:41 | 52.07082 | 2.19679 | 21006 ft | 442 kts | 76° |
| 2026-05-04 17:42 | 52.07810 | 2.24485 | 21007 ft | 442 kts | 76° |
| 2026-05-04 17:42 | 52.08543 | 2.29339 | 21004 ft | 442 kts | 76° |
| 2026-05-04 17:42 | 52.09276 | 2.34203 | 21005 ft | 441 kts | 76° |
| 2026-05-04 17:42 | 52.09998 | 2.39021 | 21005 ft | 442 kts | 76° |
| 2026-05-04 17:43 | 52.10720 | 2.43860 | 20999 ft | 441 kts | 76° |
| 2026-05-04 17:43 | 52.11435 | 2.48678 | 21001 ft | 443 kts | 76° |
| 2026-05-04 17:43 | 52.12158 | 2.53578 | 20998 ft | 442 kts | 76° |
| 2026-05-04 17:43 | 52.12865 | 2.58390 | 21002 ft | 442 kts | 76° |
| 2026-05-04 17:44 | 52.13577 | 2.63272 | 21003 ft | 442 kts | 76° |
| 2026-05-04 17:44 | 52.14330 | 2.68112 | 20992 ft | 443 kts | 71° |
| 2026-05-04 17:44 | 52.15747 | 2.72506 | 20994 ft | 442 kts | 51° |
| 2026-05-04 17:44 | 52.17726 | 2.76294 | 21017 ft | 427 kts | 52° |
| 2026-05-04 17:45 | 52.19424 | 2.80111 | 20987 ft | 410 kts | 55° |
| 2026-05-04 17:45 | 52.21076 | 2.84020 | 21011 ft | 434 kts | 56° |
| 2026-05-04 17:45 | 52.22794 | 2.88158 | 21002 ft | 444 kts | 56° |
| 2026-05-04 17:45 | 52.24493 | 2.92275 | 20998 ft | 445 kts | 56° |
| 2026-05-04 17:46 | 52.26202 | 2.96432 | 20982 ft | 425 kts | 56° |
| 2026-05-04 17:46 | 52.27772 | 3.00256 | 20969 ft | 397 kts | 56° |
| 2026-05-04 17:46 | 52.29285 | 3.03948 | 20978 ft | 386 kts | 56° |
| 2026-05-04 17:46 | 52.30765 | 3.07564 | 20997 ft | 389 kts | 56° |
| 2026-05-04 17:47 | 52.32281 | 3.11274 | 20775 ft | 394 kts | 56° |
| 2026-05-04 17:47 | 52.33788 | 3.14967 | 20357 ft | 391 kts | 56° |
| 2026-05-04 17:47 | 52.35287 | 3.18646 | 19932 ft | 387 kts | 56° |
| 2026-05-04 17:47 | 52.36763 | 3.22272 | 19509 ft | 382 kts | 56° |
| 2026-05-04 17:48 | 52.38209 | 3.25834 | 19091 ft | 378 kts | 56° |
| 2026-05-04 17:48 | 52.39659 | 3.29406 | 18682 ft | 376 kts | 56° |
| 2026-05-04 17:48 | 52.41102 | 3.32967 | 18270 ft | 374 kts | 56° |
| 2026-05-04 17:48 | 52.42524 | 3.36483 | 17858 ft | 371 kts | 56° |
| 2026-05-04 17:49 | 52.43951 | 3.40014 | 17453 ft | 370 kts | 56° |
| 2026-05-04 17:49 | 52.44986 | 3.43765 | 17048 ft | 367 kts | 74° |
| 2026-05-04 17:49 | 52.45605 | 3.47817 | 16654 ft | 365 kts | 76° |
| 2026-05-04 17:49 | 52.46196 | 3.51863 | 16243 ft | 363 kts | 76° |
| 2026-05-04 17:50 | 52.46765 | 3.55814 | 15846 ft | 360 kts | 76° |
| 2026-05-04 17:50 | 52.47338 | 3.59808 | 15445 ft | 359 kts | 76° |
| 2026-05-04 17:50 | 52.47903 | 3.63770 | 15049 ft | 356 kts | 76° |
| 2026-05-04 17:50 | 52.48460 | 3.67679 | 14658 ft | 354 kts | 77° |
| 2026-05-04 17:51 | 52.49017 | 3.71600 | 14269 ft | 351 kts | 76° |
| 2026-05-04 17:51 | 52.49565 | 3.75475 | 13871 ft | 348 kts | 76° |
| 2026-05-04 17:51 | 52.50104 | 3.79288 | 13501 ft | 346 kts | 76° |
| 2026-05-04 17:51 | 52.50649 | 3.83149 | 13130 ft | 345 kts | 76° |
| 2026-05-04 17:52 | 52.51179 | 3.86920 | 12744 ft | 343 kts | 76° |
| 2026-05-04 17:52 | 52.51711 | 3.90712 | 12363 ft | 341 kts | 76° |
| 2026-05-04 17:52 | 52.52226 | 3.94504 | 11982 ft | 340 kts | 81° |
| 2026-05-04 17:52 | 52.52065 | 3.98308 | 11644 ft | 336 kts | 107° |
| 2026-05-04 17:53 | 52.51270 | 4.01887 | 11279 ft | 330 kts | 111° |
| 2026-05-04 17:53 | 52.50442 | 4.05351 | 10910 ft | 322 kts | 112° |
| 2026-05-04 17:53 | 52.49628 | 4.08715 | 10555 ft | 313 kts | 112° |
| 2026-05-04 17:53 | 52.48838 | 4.11963 | 10216 ft | 304 kts | 112° |
| 2026-05-04 17:54 | 52.48067 | 4.15118 | 9874 ft | 297 kts | 112° |
| 2026-05-04 17:54 | 52.47308 | 4.18216 | 9576 ft | 292 kts | 112° |
| 2026-05-04 17:54 | 52.46553 | 4.21294 | 9243 ft | 290 kts | 111° |
| 2026-05-04 17:54 | 52.45803 | 4.24350 | 8905 ft | 289 kts | 111° |
| 2026-05-04 17:55 | 52.45050 | 4.27411 | 8620 ft | 290 kts | 111° |
| 2026-05-04 17:55 | 52.44303 | 4.30442 | 8282 ft | 289 kts | 111° |
| 2026-05-04 17:55 | 52.43562 | 4.33446 | 7982 ft | 286 kts | 111° |
| 2026-05-04 17:55 | 52.42652 | 4.36322 | 7658 ft | 286 kts | 131° |
| 2026-05-04 17:56 | 52.40991 | 4.38074 | 7334 ft | 286 kts | 163° |
| 2026-05-04 17:56 | 52.39022 | 4.38288 | 6935 ft | 282 kts | 183° |
| 2026-05-04 17:56 | 52.37062 | 4.38090 | 6587 ft | 274 kts | 184° |
| 2026-05-04 17:56 | 52.35159 | 4.37871 | 6267 ft | 267 kts | 184° |
| 2026-05-04 17:57 | 52.33315 | 4.37647 | 5975 ft | 259 kts | 184° |
| 2026-05-04 17:57 | 52.31545 | 4.37427 | 5689 ft | 251 kts | 184° |
| 2026-05-04 17:57 | 52.29796 | 4.37208 | 5423 ft | 245 kts | 184° |
| 2026-05-04 17:57 | 52.28094 | 4.36993 | 5146 ft | 242 kts | 184° |
| 2026-05-04 17:58 | 52.26417 | 4.36781 | 4892 ft | 242 kts | 184° |
| 2026-05-04 17:58 | 52.24742 | 4.36791 | 4615 ft | 242 kts | 162° |
| 2026-05-04 17:58 | 52.23372 | 4.38297 | 4382 ft | 236 kts | 122° |
| 2026-05-04 17:58 | 52.22591 | 4.40622 | 4125 ft | 235 kts | 114° |
| 2026-05-04 17:59 | 52.21879 | 4.42992 | 3838 ft | 233 kts | 113° |
| 2026-05-04 17:59 | 52.21183 | 4.45360 | 3578 ft | 230 kts | 110° |
| 2026-05-04 17:59 | 52.20847 | 4.50412 | 3080 ft | 225 kts | 89° |
| 2026-05-04 18:00 | 52.20887 | 4.52931 | 2825 ft | 218 kts | 72° |
| 2026-05-04 18:00 | 52.21587 | 4.54990 | 2665 ft | 201 kts | 52° |
| 2026-05-04 18:00 | 52.22370 | 4.56843 | 2427 ft | 193 kts | 54° |
| 2026-05-04 18:00 | 52.23072 | 4.58608 | 2226 ft | 169 kts | 55° |
| 2026-05-04 18:01 | 52.23659 | 4.60113 | 1963 ft | 148 kts | 54° |
| 2026-05-04 18:01 | 52.24180 | 4.61470 | 1738 ft | 131 kts | 55° |
| 2026-05-04 18:01 | 52.24639 | 4.62661 | 1544 ft | 117 kts | 54° |
| 2026-05-04 18:02 | 52.25519 | 4.64920 | 1271 ft | 122 kts | 54° |
| 2026-05-04 18:02 | 52.25972 | 4.66115 | 1115 ft | 126 kts | 55° |
| 2026-05-04 18:02 | 52.26432 | 4.67320 | 944 ft | 126 kts | 54° |
| 2026-05-04 18:02 | 52.26909 | 4.68555 | 767 ft | 127 kts | 54° |
| 2026-05-04 18:03 | 52.27380 | 4.69765 | 605 ft | 124 kts | 56° |
| 2026-05-04 18:03 | 52.27843 | 4.70954 | 433 ft | 126 kts | 55° |
| 2026-05-04 18:03 | 52.28319 | 4.72192 | 257 ft | 124 kts | 55° |
| 2026-05-04 18:03 | 52.28785 | 4.73405 | 99 ft | 130 kts | 57° |
| 2026-05-04 18:04 | 52.29237 | 4.74576 | -1 ft | 107 kts | 56° |
| 2026-05-04 18:04 | 52.29553 | 4.75389 | -4 ft | 60 kts | 57° |
| 2026-05-04 18:04 | 52.29840 | 4.75854 | -4 ft | 13 kts | 27° |
| 2026-05-04 18:05 | 52.29919 | 4.75922 | -2 ft | 12 kts | 28° |
| 2026-05-04 18:05 | 52.29995 | 4.75960 | -1 ft | 11 kts | 353° |
| 2026-05-04 18:05 | 52.30047 | 4.75896 | 0 ft | 8 kts | 298° |
| 2026-05-04 18:05 | 52.30030 | 4.75829 | 0 ft | 6 kts | 237° |
| 2026-05-04 18:06 | 52.29996 | 4.75656 | -1 ft | 8 kts | 321° |
| 2026-05-04 18:06 | 52.30034 | 4.75618 | 0 ft | 4 kts | 329° |
| 2026-05-04 18:06 | 52.30053 | 4.75595 | 1 ft | 2 kts | 308° |
| 2026-05-04 18:07 | 52.30056 | 4.75567 | 1 ft | 3 kts | 251° |
| 2026-05-04 18:07 | 52.30041 | 4.75530 | 2 ft | 2 kts | 239° |
| 2026-05-04 18:07 | 52.30038 | 4.75521 | 2 ft | 0 kts | 239° |